Time;durP1;ratioP1;P1;durP2;ratioP2;P2;SDS_P1;SDS_P2;PMS_P1;PMS_P2;Temp;Humidity;BMP_temperature;BMP_pressure;BME280_temperature;BME280_humidity;BME280_pressure;Samples;Min_cycle;Max_cycle;Signal;HPM_P1;HPM_P2
2021/03/07 02:39:33;;;;;;;9.27;2.30;;;;;;;;;;5299400;23;20115;-41
2021/03/07 02:42:07;;;;;;;21.45;10.98;;;;;;;;;;5006148;28;20044;-41
2021/03/07 02:44:37;;;;;;;19.50;8.00;;;;;;;;;;5009525;28;20029;-44
2021/03/07 02:47:06;;;;;;;22.35;8.70;;;;;;;;;;5009986;28;20124;-41
2021/03/07 02:49:34;;;;;;;16.55;6.00;;;;;;;;;;4999829;28;20393;-41
2021/03/07 02:52:02;;;;;;;17.02;5.32;;;;;;;;;;5005777;28;20084;-43
2021/03/07 02:54:31;;;;;;;19.08;5.38;;;;;;;;;;5004850;28;20037;-46
2021/03/07 02:57:00;;;;;;;12.15;4.68;;;;;;;;;;5004507;28;20091;-41
2021/03/07 02:59:28;;;;;;;15.07;3.70;;;;;;;;;;4988241;28;20038;-42
2021/03/07 03:02:00;;;;;;;15.63;2.95;;;;;;;;;;4999567;28;20113;-41
2021/03/07 03:04:29;;;;;;;16.45;3.03;;;;;;;;;;5010586;28;20073;-55
2021/03/07 03:06:58;;;;;;;21.38;3.38;;;;;;;;;;5012678;28;20026;-47
2021/03/07 03:09:28;;;;;;;14.68;3.03;;;;;;;;;;5012061;28;20072;-48
2021/03/07 03:11:56;;;;;;;14.20;2.70;;;;;;;;;;5012667;28;20479;-47
2021/03/07 03:14:25;;;;;;;13.50;2.67;;;;;;;;;;5012743;28;20037;-48
2021/03/07 03:16:53;;;;;;;15.85;2.65;;;;;;;;;;5012500;28;20042;-47
2021/03/07 03:19:21;;;;;;;14.25;2.90;;;;;;;;;;5012679;28;20022;-48
2021/03/07 03:21:49;;;;;;;19.50;3.15;;;;;;;;;;4994602;28;20539;-49
2021/03/07 03:24:16;;;;;;;11.02;2.78;;;;;;;;;;5012323;28;20048;-49
2021/03/07 03:26:44;;;;;;;14.60;2.33;;;;;;;;;;5016190;28;20050;-54
2021/03/07 03:29:12;;;;;;;9.73;2.22;;;;;;;;;;4991627;28;20026;-47
2021/03/07 03:31:39;;;;;;;13.05;2.20;;;;;;;;;;4997700;28;20032;-48
2021/03/07 03:34:08;;;;;;;12.10;2.70;;;;;;;;;;5015141;28;20022;-49
2021/03/07 03:36:39;;;;;;;10.63;2.63;;;;;;;;;;5015515;28;20040;-47
2021/03/07 03:39:11;;;;;;;12.55;2.65;;;;;;;;;;5015503;28;20071;-48
2021/03/07 03:41:38;;;;;;;20.95;3.28;;;;;;;;;;5014608;28;20517;-49
2021/03/07 03:44:09;;;;;;;11.38;3.17;;;;;;;;;;5015358;28;20034;-49
2021/03/07 03:46:41;;;;;;;13.00;3.10;;;;;;;;;;5015093;28;20041;-49
2021/03/07 03:49:08;;;;;;;;;;;;;;;;;;4995276;28;20026;-47
2021/03/07 03:51:35;;;;;;;20.95;2.92;;;;;;;;;;5014331;28;19909;-51
2021/03/07 03:54:04;;;;;;;15.50;2.97;;;;;;;;;;5014930;28;20061;-47
2021/03/07 03:56:31;;;;;;;22.52;3.35;;;;;;;;;;5015516;28;20121;-48
2021/03/07 03:58:58;;;;;;;14.90;2.60;;;;;;;;;;5015450;28;20569;-48
2021/03/07 04:01:26;;;;;;;8.38;2.70;;;;;;;;;;5014995;28;20026;-48
2021/03/07 04:03:54;;;;;;;13.40;2.75;;;;;;;;;;5014857;28;20312;-46
2021/03/07 04:06:25;;;;;;;16.17;2.67;;;;;;;;;;5014826;28;20065;-49
2021/03/07 04:08:55;;;;;;;9.68;2.53;;;;;;;;;;4998058;28;20124;-49
2021/03/07 04:11:23;;;;;;;10.68;2.38;;;;;;;;;;5014360;28;20018;-50
2021/03/07 04:13:50;;;;;;;11.40;2.45;;;;;;;;;;5014718;28;20033;-47
2021/03/07 04:16:18;;;;;;;12.95;3.00;;;;;;;;;;5015569;28;20473;-48
2021/03/07 04:18:47;;;;;;;9.85;2.50;;;;;;;;;;5015401;28;20029;-55
2021/03/07 04:21:14;;;;;;;11.68;2.90;;;;;;;;;;5014609;28;20569;-52
2021/03/07 04:23:41;;;;;;;10.85;2.80;;;;;;;;;;5015113;28;20045;-49
2021/03/07 04:26:09;;;;;;;10.93;2.60;;;;;;;;;;5015417;28;20516;-51
2021/03/07 04:28:37;;;;;;;10.77;2.30;;;;;;;;;;5015161;28;20109;-49
2021/03/07 04:31:04;;;;;;;16.42;3.05;;;;;;;;;;4997102;28;20543;-50
2021/03/07 04:33:32;;;;;;;9.25;3.00;;;;;;;;;;5014998;28;20084;-49
2021/03/07 04:36:00;;;;;;;10.23;2.53;;;;;;;;;;5014750;28;20359;-47
2021/03/07 04:38:27;;;;;;;13.88;2.65;;;;;;;;;;5014344;28;20065;-49
2021/03/07 04:40:54;;;;;;;29.23;2.58;;;;;;;;;;5013547;28;20107;-48
2021/03/07 04:43:21;;;;;;;11.05;2.58;;;;;;;;;;5014372;28;20393;-50
2021/03/07 04:45:48;;;;;;;14.88;2.70;;;;;;;;;;5014848;28;20018;-49
2021/03/07 04:48:15;;;;;;;16.08;2.67;;;;;;;;;;5014978;28;20528;-49
2021/03/07 04:50:42;;;;;;;11.57;2.95;;;;;;;;;;5014457;28;20432;-51
2021/03/07 04:53:09;;;;;;;16.75;2.92;;;;;;;;;;5014217;28;20022;-50
2021/03/07 04:55:36;;;;;;;12.25;2.80;;;;;;;;;;5014752;28;20026;-48
2021/03/07 04:58:03;;;;;;;12.55;2.95;;;;;;;;;;5014531;28;20196;-50
2021/03/07 05:00:30;;;;;;;10.50;2.58;;;;;;;;;;5014222;28;20022;-48
2021/03/07 05:02:58;;;;;;;13.80;2.65;;;;;;;;;;5014160;28;20033;-49
2021/03/07 05:05:25;;;;;;;12.20;2.78;;;;;;;;;;5014456;28;20026;-49
2021/03/07 05:07:53;;;;;;;12.55;2.70;;;;;;;;;;5014299;28;20033;-49
2021/03/07 05:10:20;;;;;;;10.00;2.50;;;;;;;;;;5014166;28;20026;-51
2021/03/07 05:12:47;;;;;;;10.77;2.80;;;;;;;;;;5014017;28;20390;-51
2021/03/07 05:15:14;;;;;;;17.83;2.53;;;;;;;;;;5014237;28;20018;-51
2021/03/07 05:17:41;;;;;;;16.83;2.63;;;;;;;;;;5014376;28;20075;-49
2021/03/07 05:20:09;;;;;;;8.23;3.10;;;;;;;;;;5013812;28;20144;-50
2021/03/07 05:22:35;;;;;;;13.20;2.97;;;;;;;;;;5013830;28;20105;-48
2021/03/07 05:25:03;;;;;;;11.65;3.10;;;;;;;;;;5014163;28;20477;-50
2021/03/07 05:27:30;;;;;;;13.10;2.83;;;;;;;;;;5013887;28;20065;-49
2021/03/07 05:29:56;;;;;;;10.98;2.50;;;;;;;;;;5013518;28;20025;-49
2021/03/07 05:32:23;;;;;;;8.70;2.72;;;;;;;;;;5014185;28;20048;-48
2021/03/07 05:34:50;;;;;;;12.55;2.63;;;;;;;;;;5013571;28;20014;-50
2021/03/07 05:37:17;;;;;;;7.75;2.53;;;;;;;;;;5013768;28;20025;-49
2021/03/07 05:39:44;;;;;;;11.07;2.90;;;;;;;;;;5012319;28;20552;-49
2021/03/07 05:42:12;;;;;;;12.63;2.78;;;;;;;;;;5013834;28;20103;-49
2021/03/07 05:44:39;;;;;;;12.32;2.63;;;;;;;;;;5013356;28;20018;-48
2021/03/07 05:47:06;;;;;;;12.38;3.05;;;;;;;;;;5013617;28;20029;-49
2021/03/07 05:49:34;;;;;;;15.70;2.72;;;;;;;;;;5013419;28;20498;-50
2021/03/07 05:52:01;;;;;;;7.97;2.60;;;;;;;;;;5013661;28;20028;-48
2021/03/07 05:54:29;;;;;;;13.05;2.72;;;;;;;;;;5013436;28;20045;-50
2021/03/07 05:56:56;;;;;;;11.40;2.78;;;;;;;;;;4995827;28;20032;-49
2021/03/07 05:59:23;;;;;;;11.05;2.67;;;;;;;;;;5013024;28;20508;-49
2021/03/07 06:01:50;;;;;;;15.15;2.38;;;;;;;;;;5013515;28;20462;-49
2021/03/07 06:04:17;;;;;;;13.32;2.90;;;;;;;;;;5013138;28;20388;-48
2021/03/07 06:06:44;;;;;;;15.20;3.13;;;;;;;;;;5013227;28;20030;-47
2021/03/07 06:09:18;;;;;;;13.32;2.50;;;;;;;;;;5013189;28;20026;-48
2021/03/07 06:11:46;;;;;;;13.52;2.95;;;;;;;;;;5013478;28;20105;-48
2021/03/07 06:14:19;;;;;;;9.32;2.47;;;;;;;;;;5012915;28;20022;-48
2021/03/07 06:16:59;;;;;;;7.55;2.63;;;;;;;;;;5012805;28;20030;-49
2021/03/07 06:19:26;;;;;;;10.60;2.55;;;;;;;;;;5013094;28;20056;-48
2021/03/07 06:21:53;;;;;;;14.68;2.70;;;;;;;;;;4995679;28;20420;-49
2021/03/07 06:24:34;;;;;;;12.18;2.85;;;;;;;;;;5012978;28;20034;-48
2021/03/07 06:27:05;;;;;;;10.05;2.38;;;;;;;;;;5012560;28;20022;-49
2021/03/07 06:29:32;;;;;;;10.57;2.70;;;;;;;;;;5013048;28;20075;-48
2021/03/07 06:31:59;;;;;;;10.70;2.58;;;;;;;;;;5013177;28;20125;-48
2021/03/07 06:34:26;;;;;;;8.30;2.80;;;;;;;;;;5012746;28;20046;-48
2021/03/07 06:37:04;;;;;;;7.97;2.50;;;;;;;;;;5012205;28;20062;-48
2021/03/07 06:39:30;;;;;;;12.80;2.70;;;;;;;;;;5012627;28;20424;-48
2021/03/07 06:42:05;;;;;;;8.80;2.38;;;;;;;;;;5011800;28;20042;-49
2021/03/07 06:44:33;;;;;;;14.98;3.30;;;;;;;;;;5012512;28;20528;-48
2021/03/07 06:47:10;;;;;;;11.50;2.70;;;;;;;;;;5012251;28;20080;-48
2021/03/07 06:49:38;;;;;;;6.50;2.50;;;;;;;;;;5012641;28;20026;-49
2021/03/07 06:52:23;;;;;;;12.07;2.88;;;;;;;;;;5012755;28;20109;-47
2021/03/07 06:55:05;;;;;;;12.52;2.88;;;;;;;;;;5012566;28;20021;-55
2021/03/07 06:57:32;;;;;;;11.07;2.60;;;;;;;;;;5012272;28;20029;-48
2021/03/07 06:59:59;;;;;;;11.95;3.03;;;;;;;;;;5012183;28;20032;-50
2021/03/07 07:02:26;;;;;;;14.55;3.00;;;;;;;;;;5012294;28;20076;-49
2021/03/07 07:04:53;;;;;;;7.40;2.85;;;;;;;;;;5012301;28;20087;-48
2021/03/07 07:07:21;;;;;;;16.30;2.90;;;;;;;;;;5012013;28;20164;-48
2021/03/07 07:09:57;;;;;;;11.32;2.80;;;;;;;;;;5012390;28;20030;-49
2021/03/07 07:12:25;;;;;;;12.35;2.55;;;;;;;;;;5012360;28;20022;-51
2021/03/07 07:15:03;;;;;;;8.70;2.38;;;;;;;;;;5012225;28;20026;-54
2021/03/07 07:17:30;;;;;;;14.77;3.08;;;;;;;;;;5012148;28;20091;-51
2021/03/07 07:19:57;;;;;;;9.73;2.80;;;;;;;;;;5012370;28;20022;-51
2021/03/07 07:22:24;;;;;;;8.95;2.60;;;;;;;;;;5012222;28;20473;-51
2021/03/07 07:24:51;;;;;;;13.27;2.80;;;;;;;;;;5011977;28;20480;-52
2021/03/07 07:27:20;;;;;;;8.80;2.40;;;;;;;;;;5012010;28;20597;-49
2021/03/07 07:29:47;;;;;;;7.28;2.65;;;;;;;;;;5012306;28;20022;-52
2021/03/07 07:32:14;;;;;;;15.10;2.67;;;;;;;;;;5012134;28;20477;-48
2021/03/07 07:34:44;;;;;;;8.60;2.42;;;;;;;;;;5012036;28;20093;-49
2021/03/07 07:37:24;;;;;;;7.50;2.40;;;;;;;;;;5011991;28;20026;-49
2021/03/07 07:39:53;;;;;;;5.45;2.20;;;;;;;;;;5010954;28;20468;-51
2021/03/07 07:42:23;;;;;;;10.88;2.88;;;;;;;;;;5011978;28;20026;-50
2021/03/07 07:44:50;;;;;;;9.25;2.53;;;;;;;;;;5012042;28;20425;-48
2021/03/07 07:47:18;;;;;;;14.65;3.10;;;;;;;;;;5012009;28;20026;-49
2021/03/07 07:50:03;;;;;;;7.38;2.50;;;;;;;;;;5011931;28;20037;-50
2021/03/07 07:52:33;;;;;;;18.27;2.67;;;;;;;;;;5012015;28;20041;-50
2021/03/07 07:55:11;;;;;;;7.53;2.50;;;;;;;;;;5011800;28;20022;-48
2021/03/07 07:57:42;;;;;;;6.45;2.45;;;;;;;;;;5011794;28;20044;-49
2021/03/07 08:00:11;;;;;;;12.18;3.10;;;;;;;;;;5011710;28;20022;-48
2021/03/07 08:02:47;;;;;;;7.70;2.22;;;;;;;;;;5011857;28;20030;-52
2021/03/07 08:05:26;;;;;;;8.40;2.55;;;;;;;;;;5011940;28;20026;-50
2021/03/07 08:07:56;;;;;;;9.40;2.55;;;;;;;;;;5012004;28;20077;-48
2021/03/07 08:10:42;;;;;;;11.23;3.13;;;;;;;;;;5011480;28;20057;-49
2021/03/07 08:13:10;;;;;;;9.65;2.80;;;;;;;;;;5014359;28;20030;-49
2021/03/07 08:15:39;;;;;;;10.43;2.35;;;;;;;;;;5015686;28;20100;-49
2021/03/07 08:18:06;;;;;;;7.05;2.28;;;;;;;;;;5015436;28;20041;-49
2021/03/07 08:20:42;;;;;;;9.13;2.95;;;;;;;;;;5014542;28;20030;-51
2021/03/07 08:23:10;;;;;;;13.65;2.30;;;;;;;;;;5015129;28;20038;-48
2021/03/07 08:25:52;;;;;;;7.93;2.70;;;;;;;;;;5015436;28;20018;-48
2021/03/07 08:28:28;;;;;;;11.77;2.88;;;;;;;;;;4997759;28;20030;-49
2021/03/07 08:30:59;;;;;;;7.57;2.63;;;;;;;;;;5014653;28;20025;-49
2021/03/07 08:33:27;;;;;;;12.95;3.50;;;;;;;;;;5015214;28;20381;-49
2021/03/07 08:36:16;;;;;;;12.10;3.80;;;;;;;;;;5014956;28;20430;-48
2021/03/07 08:38:50;;;;;;;15.82;3.92;;;;;;;;;;5014585;28;20036;-49
2021/03/07 08:41:17;;;;;;;9.98;3.67;;;;;;;;;;5013231;28;20046;-49
2021/03/07 08:43:45;;;;;;;13.70;3.70;;;;;;;;;;5014986;28;20034;-48
2021/03/07 08:46:16;;;;;;;13.10;3.38;;;;;;;;;;5014954;28;20485;-49
2021/03/07 08:48:47;;;;;;;6.65;2.67;;;;;;;;;;5014571;28;20025;-48
2021/03/07 08:51:15;;;;;;;11.02;2.90;;;;;;;;;;5014410;28;20022;-49
2021/03/07 08:53:43;;;;;;;15.32;3.13;;;;;;;;;;5014601;28;20029;-50
2021/03/07 08:56:11;;;;;;;10.35;2.95;;;;;;;;;;5014606;28;20022;-48
2021/03/07 08:58:38;;;;;;;13.90;2.78;;;;;;;;;;5014511;28;20072;-49
2021/03/07 09:01:06;;;;;;;14.48;2.55;;;;;;;;;;5013993;28;20041;-49
2021/03/07 09:03:34;;;;;;;9.70;2.67;;;;;;;;;;5014570;28;20038;-53
2021/03/07 09:06:09;;;;;;;10.35;2.83;;;;;;;;;;5014653;28;20018;-52
2021/03/07 09:08:36;;;;;;;9.38;2.05;;;;;;;;;;5014227;28;20026;-50
2021/03/07 09:11:03;;;;;;;8.98;2.85;;;;;;;;;;5013901;28;20021;-48
2021/03/07 09:13:32;;;;;;;12.00;2.45;;;;;;;;;;5014425;28;20026;-51
2021/03/07 09:16:03;;;;;;;8.90;2.60;;;;;;;;;;5014256;28;20474;-49
2021/03/07 09:18:35;;;;;;;12.02;2.50;;;;;;;;;;5014043;28;20029;-49
2021/03/07 09:21:03;;;;;;;12.50;3.07;;;;;;;;;;5013598;28;20026;-48
2021/03/07 09:23:31;;;;;;;9.68;2.85;;;;;;;;;;5013852;28;20034;-48
2021/03/07 09:26:03;;;;;;;10.68;2.95;;;;;;;;;;5014049;28;20018;-49
2021/03/07 09:28:34;;;;;;;10.50;2.65;;;;;;;;;;5013825;28;20109;-49
2021/03/07 09:31:02;;;;;;;9.67;2.50;;;;;;;;;;5013634;28;20386;-54
2021/03/07 09:33:29;;;;;;;10.52;2.40;;;;;;;;;;5014242;28;20026;-57
2021/03/07 09:36:10;;;;;;;7.55;2.50;;;;;;;;;;5013696;28;20030;-56
2021/03/07 09:39:00;;;;;;;10.82;2.33;;;;;;;;;;5013527;28;20018;-56
2021/03/07 09:41:31;;;;;;;14.02;2.60;;;;;;;;;;5004678;28;20084;-54
2021/03/07 09:44:00;;;;;;;8.32;2.95;;;;;;;;;;5013667;28;20084;-55
2021/03/07 09:46:27;;;;;;;14.13;2.95;;;;;;;;;;5013528;28;20097;-51
2021/03/07 09:48:59;;;;;;;7.07;2.70;;;;;;;;;;5013698;28;20054;-53
2021/03/07 09:51:28;;;;;;;13.85;2.60;;;;;;;;;;5013315;28;20033;-57
2021/03/07 09:53:55;;;;;;;10.07;2.80;;;;;;;;;;5013630;28;20054;-57
2021/03/07 09:56:27;;;;;;;11.60;2.63;;;;;;;;;;5013393;28;20425;-55
2021/03/07 09:58:54;;;;;;;11.70;3.20;;;;;;;;;;5013485;28;20030;-56
2021/03/07 10:01:21;;;;;;;10.13;3.20;;;;;;;;;;5013417;28;20477;-51
2021/03/07 10:03:48;;;;;;;11.30;3.58;;;;;;;;;;5013017;28;20619;-52
2021/03/07 10:06:15;;;;;;;9.68;3.22;;;;;;;;;;5013247;28;20018;-56
2021/03/07 10:08:43;;;;;;;10.88;3.15;;;;;;;;;;5013172;28;20505;-49
2021/03/07 10:11:10;;;;;;;12.88;2.97;;;;;;;;;;5013417;28;20478;-54
2021/03/07 10:13:37;;;;;;;7.50;2.90;;;;;;;;;;5012750;28;20030;-54
2021/03/07 10:16:05;;;;;;;13.07;3.13;;;;;;;;;;5012756;28;20030;-54
2021/03/07 10:18:33;;;;;;;8.32;2.20;;;;;;;;;;5013186;28;20030;-56
2021/03/07 10:21:00;;;;;;;9.32;2.85;;;;;;;;;;5013259;28;20091;-50
2021/03/07 10:23:31;;;;;;;17.50;3.42;;;;;;;;;;5012607;28;20513;-55
2021/03/07 10:25:59;;;;;;;12.32;2.60;;;;;;;;;;5012938;28;20482;-49
2021/03/07 10:28:27;;;;;;;18.23;3.50;;;;;;;;;;5013071;28;20148;-55
2021/03/07 10:30:54;;;;;;;14.02;2.67;;;;;;;;;;5012890;28;20437;-50
2021/03/07 10:33:26;;;;;;;9.15;2.72;;;;;;;;;;5012451;28;20018;-49
2021/03/07 10:35:59;;;;;;;13.93;2.73;;;;;;;;;;5012174;28;20018;-49
2021/03/07 10:38:26;;;;;;;12.82;3.58;;;;;;;;;;5012947;28;20022;-51
2021/03/07 10:40:53;;;;;;;9.70;3.25;;;;;;;;;;5011479;28;20066;-52
2021/03/07 10:43:20;;;;;;;9.65;2.60;;;;;;;;;;5012187;28;20033;-48
2021/03/07 10:45:47;;;;;;;10.75;2.78;;;;;;;;;;5012651;28;20033;-49
2021/03/07 10:48:18;;;;;;;12.18;3.10;;;;;;;;;;5012854;28;20076;-49
2021/03/07 10:50:46;;;;;;;13.65;2.70;;;;;;;;;;5012811;28;20018;-49
2021/03/07 10:53:13;;;;;;;9.00;3.05;;;;;;;;;;5012318;28;20046;-50
2021/03/07 10:55:41;;;;;;;14.20;3.05;;;;;;;;;;5012057;28;20037;-49
2021/03/07 10:58:08;;;;;;;11.48;3.25;;;;;;;;;;4995020;28;20426;-49
2021/03/07 11:00:35;;;;;;;11.10;2.88;;;;;;;;;;4995094;28;20022;-49
2021/03/07 11:03:03;;;;;;;9.90;2.60;;;;;;;;;;5012232;28;20437;-48
2021/03/07 11:05:30;;;;;;;9.82;2.70;;;;;;;;;;5011866;28;20030;-49
2021/03/07 11:08:05;;;;;;;10.43;2.78;;;;;;;;;;5012574;28;20057;-50
2021/03/07 11:10:33;;;;;;;13.25;3.08;;;;;;;;;;5012544;28;20105;-49
2021/03/07 11:12:59;;;;;;;10.55;2.35;;;;;;;;;;5012252;28;20022;-50
2021/03/07 11:15:26;;;;;;;11.68;2.88;;;;;;;;;;5011976;28;20429;-53
2021/03/07 11:17:54;;;;;;;13.60;2.72;;;;;;;;;;5012679;28;20064;-50
2021/03/07 11:20:21;;;;;;;12.63;2.47;;;;;;;;;;4994914;28;20466;-48
2021/03/07 11:22:48;;;;;;;8.40;2.55;;;;;;;;;;5011879;28;20030;-49
2021/03/07 11:25:15;;;;;;;17.55;2.65;;;;;;;;;;5012070;28;20025;-49
2021/03/07 11:27:42;;;;;;;14.18;3.03;;;;;;;;;;5012399;28;20419;-49
2021/03/07 11:30:09;;;;;;;7.43;2.50;;;;;;;;;;5012125;28;20076;-49
2021/03/07 11:32:36;;;;;;;9.95;2.47;;;;;;;;;;5012141;28;20033;-52
2021/03/07 11:35:03;;;;;;;12.73;2.85;;;;;;;;;;5011874;28;20029;-49
2021/03/07 11:37:30;;;;;;;13.70;2.90;;;;;;;;;;5012111;28;20036;-48
2021/03/07 11:39:57;;;;;;;12.52;2.42;;;;;;;;;;5012206;28;20358;-49
2021/03/07 11:42:30;;;;;;;9.00;2.83;;;;;;;;;;5010708;28;20121;-49
2021/03/07 11:44:57;;;;;;;8.00;2.80;;;;;;;;;;5012068;28;20464;-49
2021/03/07 11:47:24;;;;;;;10.00;2.72;;;;;;;;;;5015322;28;20050;-49
2021/03/07 11:49:51;;;;;;;11.02;2.90;;;;;;;;;;5015909;28;20141;-48
2021/03/07 11:52:19;;;;;;;6.50;2.85;;;;;;;;;;5015538;28;20022;-49
2021/03/07 11:54:45;;;;;;;11.70;2.88;;;;;;;;;;5015792;28;20432;-48
2021/03/07 11:57:13;;;;;;;12.55;2.97;;;;;;;;;;4997804;28;20022;-49
2021/03/07 11:59:40;;;;;;;8.68;3.13;;;;;;;;;;5015591;28;20033;-49
2021/03/07 12:02:08;;;;;;;10.05;2.83;;;;;;;;;;5015475;28;20466;-51
2021/03/07 12:04:35;;;;;;;13.23;2.65;;;;;;;;;;5015763;28;20062;-51
2021/03/07 12:07:02;;;;;;;9.95;2.85;;;;;;;;;;5015329;28;20233;-58
2021/03/07 12:09:29;;;;;;;6.63;2.75;;;;;;;;;;5015396;28;20056;-56
2021/03/07 12:11:56;;;;;;;9.48;2.30;;;;;;;;;;5015550;28;20026;-56
2021/03/07 12:14:23;;;;;;;10.55;3.28;;;;;;;;;;5015533;28;20022;-56
2021/03/07 12:16:50;;;;;;;13.93;3.13;;;;;;;;;;5015088;28;20097;-56
2021/03/07 12:19:17;;;;;;;15.43;2.78;;;;;;;;;;4997694;28;20061;-56
2021/03/07 12:21:44;;;;;;;8.50;2.80;;;;;;;;;;5015090;28;20026;-55
2021/03/07 12:24:11;;;;;;;12.25;3.60;;;;;;;;;;5015271;28;20034;-54
2021/03/07 12:26:38;;;;;;;8.60;2.90;;;;;;;;;;5014911;28;20030;-51
2021/03/07 12:29:05;;;;;;;17.42;3.25;;;;;;;;;;5014950;28;20021;-54
2021/03/07 12:31:32;;;;;;;14.77;3.67;;;;;;;;;;5015050;28;20058;-56
2021/03/07 12:33:59;;;;;;;9.20;2.83;;;;;;;;;;5015432;28;20512;-56
2021/03/07 12:36:26;;;;;;;13.32;2.58;;;;;;;;;;5014945;28;20014;-53
2021/03/07 12:38:53;;;;;;;9.50;3.35;;;;;;;;;;5014394;28;20018;-56
2021/03/07 12:41:27;;;;;;;8.32;2.80;;;;;;;;;;5013772;28;20226;-52
2021/03/07 12:43:54;;;;;;;10.05;3.05;;;;;;;;;;5015106;28;20164;-51
2021/03/07 12:46:21;;;;;;;13.43;3.42;;;;;;;;;;5014830;28;20482;-55
2021/03/07 12:48:48;;;;;;;11.90;3.08;;;;;;;;;;5014333;28;20033;-53
2021/03/07 12:51:15;;;;;;;11.50;3.22;;;;;;;;;;5014891;28;20026;-52
2021/03/07 12:53:42;;;;;;;14.52;3.08;;;;;;;;;;4997487;28;20107;-49
2021/03/07 12:56:09;;;;;;;16.95;3.53;;;;;;;;;;5014697;28;20029;-51
2021/03/07 12:58:36;;;;;;;17.85;3.20;;;;;;;;;;5013494;28;20030;-53
2021/03/07 13:01:03;;;;;;;15.27;3.15;;;;;;;;;;5014615;28;20497;-51
2021/03/07 13:03:30;;;;;;;9.32;3.70;;;;;;;;;;5014401;28;20072;-52
2021/03/07 13:05:57;;;;;;;15.15;3.05;;;;;;;;;;5014450;28;20071;-54
2021/03/07 13:08:24;;;;;;;11.45;2.88;;;;;;;;;;5013951;28;20030;-55
2021/03/07 13:10:51;;;;;;;12.38;3.03;;;;;;;;;;5014394;28;20555;-50
2021/03/07 13:13:18;;;;;;;17.88;3.75;;;;;;;;;;5014573;28;20030;-53
2021/03/07 13:15:45;;;;;;;13.95;3.47;;;;;;;;;;5014188;28;20489;-51
2021/03/07 13:18:12;;;;;;;10.88;2.60;;;;;;;;;;4995997;28;20029;-54
2021/03/07 13:20:52;;;;;;;9.15;3.10;;;;;;;;;;5014388;28;20026;-53
2021/03/07 13:23:19;;;;;;;18.52;3.13;;;;;;;;;;5014385;28;20383;-51
2021/03/07 13:25:50;;;;;;;11.23;2.92;;;;;;;;;;5013621;28;20049;-51
2021/03/07 13:28:17;;;;;;;9.85;3.08;;;;;;;;;;5013975;28;20029;-49
2021/03/07 13:30:44;;;;;;;13.80;2.90;;;;;;;;;;5014005;28;20096;-53
2021/03/07 13:33:11;;;;;;;12.18;3.20;;;;;;;;;;5014099;28;20026;-49
2021/03/07 13:35:39;;;;;;;9.23;2.92;;;;;;;;;;5013643;28;20097;-49
2021/03/07 13:38:07;;;;;;;11.35;3.35;;;;;;;;;;5013793;28;20030;-50
2021/03/07 13:40:34;;;;;;;21.30;3.72;;;;;;;;;;5011801;28;20462;-49
2021/03/07 13:43:02;;;;;;;17.60;3.15;;;;;;;;;;5013839;28;20108;-49
2021/03/07 13:45:30;;;;;;;18.25;3.83;;;;;;;;;;5003515;28;20375;-49
2021/03/07 13:47:57;;;;;;;16.65;3.80;;;;;;;;;;5000370;28;20045;-49
2021/03/07 13:50:25;;;;;;;16.02;3.38;;;;;;;;;;5012594;28;20060;-52
2021/03/07 13:52:52;;;;;;;13.20;3.25;;;;;;;;;;5006538;28;20025;-50
2021/03/07 13:55:19;;;;;;;13.90;3.30;;;;;;;;;;5009185;28;20073;-52
2021/03/07 13:57:47;;;;;;;16.13;3.65;;;;;;;;;;5012651;28;20022;-50
2021/03/07 14:00:14;;;;;;;15.77;3.63;;;;;;;;;;5012395;28;20176;-49
2021/03/07 14:02:44;;;;;;;22.88;4.00;;;;;;;;;;5012488;28;20101;-50
2021/03/07 14:05:12;;;;;;;21.00;3.85;;;;;;;;;;5012272;28;20034;-50
2021/03/07 14:07:39;;;;;;;19.20;4.28;;;;;;;;;;5000503;28;20382;-53
2021/03/07 14:10:07;;;;;;;19.20;3.72;;;;;;;;;;5011055;28;20029;-51
2021/03/07 14:12:35;;;;;;;11.15;3.45;;;;;;;;;;5012047;28;20036;-52
2021/03/07 14:15:02;;;;;;;19.00;3.85;;;;;;;;;;5008332;28;20764;-48
2021/03/07 14:17:29;;;;;;;21.50;3.92;;;;;;;;;;4994372;28;20057;-49
2021/03/07 14:19:56;;;;;;;16.92;3.83;;;;;;;;;;4994952;28;20036;-53
2021/03/07 14:22:23;;;;;;;17.35;4.07;;;;;;;;;;5008251;28;20133;-54
2021/03/07 14:24:50;;;;;;;17.83;4.15;;;;;;;;;;4994801;28;20041;-55
2021/03/07 14:27:17;;;;;;;24.33;4.13;;;;;;;;;;4998427;28;20097;-51
2021/03/07 14:29:44;;;;;;;15.95;4.18;;;;;;;;;;5004181;28;20033;-49
2021/03/07 14:32:11;;;;;;;18.85;4.20;;;;;;;;;;5010106;28;20024;-51
2021/03/07 14:34:38;;;;;;;18.85;5.82;;;;;;;;;;4994159;28;20666;-54
2021/03/07 14:37:05;;;;;;;23.95;5.25;;;;;;;;;;5000557;28;20058;-53
2021/03/07 14:39:32;;;;;;;24.42;5.97;;;;;;;;;;4995258;28;20030;-52
2021/03/07 14:41:59;;;;;;;14.23;5.15;;;;;;;;;;4994681;28;20074;-52
2021/03/07 14:44:26;;;;;;;23.58;4.97;;;;;;;;;;4995979;28;20030;-56
2021/03/07 14:46:55;;;;;;;22.83;5.38;;;;;;;;;;4993333;28;20050;-53
2021/03/07 14:49:22;;;;;;;23.40;5.80;;;;;;;;;;4992330;28;20117;-51
2021/03/07 14:51:50;;;;;;;20.25;6.10;;;;;;;;;;5003041;28;20018;-55
2021/03/07 14:54:17;;;;;;;23.00;6.03;;;;;;;;;;5011755;28;20025;-52
2021/03/07 14:56:44;;;;;;;22.88;5.95;;;;;;;;;;5011819;28;20022;-54
2021/03/07 14:59:11;;;;;;;25.45;5.60;;;;;;;;;;5011449;28;20504;-53
2021/03/07 15:01:39;;;;;;;18.38;5.00;;;;;;;;;;5010697;28;20072;-53
2021/03/07 15:04:06;;;;;;;15.07;5.90;;;;;;;;;;5011372;28;20037;-54
2021/03/07 15:06:33;;;;;;;14.15;5.20;;;;;;;;;;5011291;28;20025;-54
2021/03/07 15:09:04;;;;;;;15.73;4.97;;;;;;;;;;5011160;28;20030;-50
2021/03/07 15:11:31;;;;;;;14.55;5.53;;;;;;;;;;5005272;28;20377;-50
2021/03/07 15:13:58;;;;;;;19.20;6.10;;;;;;;;;;5010512;28;20128;-52
2021/03/07 15:16:25;;;;;;;14.98;6.53;;;;;;;;;;5008517;28;20105;-50
2021/03/07 15:18:52;;;;;;;12.02;5.13;;;;;;;;;;5006528;28;20105;-56
2021/03/07 15:21:19;;;;;;;14.63;4.63;;;;;;;;;;5008418;28;20032;-46
2021/03/07 15:23:47;;;;;;;30.08;5.63;;;;;;;;;;5014921;28;20034;-46
2021/03/07 15:26:15;;;;;;;47.10;5.88;;;;;;;;;;5015654;28;20488;-40
2021/03/07 15:28:42;;;;;;;30.35;5.25;;;;;;;;;;5014860;28;20524;-41
2021/03/07 15:31:10;;;;;;;27.10;5.80;;;;;;;;;;5015275;28;20025;-41
2021/03/07 15:33:37;;;;;;;24.23;5.18;;;;;;;;;;5014865;28;20490;-42
2021/03/07 15:36:05;;;;;;;14.85;5.18;;;;;;;;;;4997930;28;20033;-42
2021/03/07 15:38:32;;;;;;;20.00;5.47;;;;;;;;;;5014895;28;20478;-41
2021/03/07 15:41:00;;;;;;;13.57;4.57;;;;;;;;;;5002937;28;20126;-42
2021/03/07 15:43:28;;;;;;;17.10;5.18;;;;;;;;;;5003594;28;20488;-43
2021/03/07 15:45:55;;;;;;;17.88;4.97;;;;;;;;;;5006919;28;20021;-49
2021/03/07 15:48:22;;;;;;;18.75;5.00;;;;;;;;;;5011517;28;20018;-54
2021/03/07 15:50:49;;;;;;;17.05;5.45;;;;;;;;;;5000021;28;20030;-48
2021/03/07 15:53:16;;;;;;;12.52;4.65;;;;;;;;;;5003117;28;20417;-51
2021/03/07 15:55:43;;;;;;;15.80;4.75;;;;;;;;;;4985324;28;20482;-51
2021/03/07 15:58:10;;;;;;;21.75;5.32;;;;;;;;;;4998306;28;20038;-49
2021/03/07 16:00:37;;;;;;;13.50;4.90;;;;;;;;;;4994294;28;20030;-49
2021/03/07 16:03:04;;;;;;;14.57;4.82;;;;;;;;;;5002821;28;20022;-48
2021/03/07 16:05:31;;;;;;;13.82;5.63;;;;;;;;;;5010734;28;20029;-54
2021/03/07 16:07:58;;;;;;;15.48;4.90;;;;;;;;;;5011386;28;20029;-49
2021/03/07 16:10:25;;;;;;;13.40;4.65;;;;;;;;;;5011554;28;20022;-49
2021/03/07 16:12:52;;;;;;;13.90;5.53;;;;;;;;;;5013618;28;20606;-50
2021/03/07 16:15:21;;;;;;;13.13;5.43;;;;;;;;;;5006628;28;20367;-49
2021/03/07 16:17:48;;;;;;;17.90;4.80;;;;;;;;;;5014056;28;20048;-49
2021/03/07 16:20:15;;;;;;;16.52;5.18;;;;;;;;;;5014527;28;20667;-48
2021/03/07 16:22:42;;;;;;;16.42;4.65;;;;;;;;;;5009373;28;20042;-50
2021/03/07 16:25:10;;;;;;;12.07;4.93;;;;;;;;;;5006098;28;20026;-51
2021/03/07 16:27:37;;;;;;;11.48;5.07;;;;;;;;;;5013771;28;20018;-50
2021/03/07 16:30:05;;;;;;;14.45;5.22;;;;;;;;;;5011936;28;20030;-50
2021/03/07 16:32:32;;;;;;;14.38;5.47;;;;;;;;;;4999320;28;20021;-47
2021/03/07 16:34:59;;;;;;;18.38;6.30;;;;;;;;;;5009483;28;20034;-47
2021/03/07 16:37:26;;;;;;;23.98;7.78;;;;;;;;;;5013276;28;20017;-46
2021/03/07 16:39:53;;;;;;;27.05;8.13;;;;;;;;;;5013282;28;20480;-47
2021/03/07 16:42:20;;;;;;;25.88;9.60;;;;;;;;;;5013926;28;20077;-46
2021/03/07 16:44:47;;;;;;;27.02;10.25;;;;;;;;;;4996166;28;20030;-47
2021/03/07 16:47:13;;;;;;;37.33;10.55;;;;;;;;;;5013371;28;20491;-49
2021/03/07 16:49:40;;;;;;;21.95;10.80;;;;;;;;;;5013811;28;20037;-46
2021/03/07 16:52:07;;;;;;;33.97;11.43;;;;;;;;;;5013657;28;20030;-46
2021/03/07 16:54:34;;;;;;;28.10;10.55;;;;;;;;;;5013288;28;20065;-45
2021/03/07 16:57:01;;;;;;;32.90;11.85;;;;;;;;;;5011842;28;20528;-45
2021/03/07 16:59:28;;;;;;;31.95;10.18;;;;;;;;;;5007032;28;20021;-44
2021/03/07 17:01:56;;;;;;;28.48;9.88;;;;;;;;;;5013867;28;20030;-45
2021/03/07 17:04:23;;;;;;;29.52;9.88;;;;;;;;;;5013447;28;20034;-44
2021/03/07 17:06:50;;;;;;;19.20;8.82;;;;;;;;;;5011092;28;20028;-44
2021/03/07 17:09:16;;;;;;;23.48;9.35;;;;;;;;;;4995573;28;20022;-47
2021/03/07 17:11:44;;;;;;;25.45;9.20;;;;;;;;;;5013936;28;20021;-45
2021/03/07 17:14:10;;;;;;;22.90;8.65;;;;;;;;;;4995949;28;20576;-45
2021/03/07 17:16:38;;;;;;;21.70;7.90;;;;;;;;;;4994199;28;20025;-48
2021/03/07 17:19:05;;;;;;;25.52;8.90;;;;;;;;;;5012140;28;20021;-45